Kayenta, AZ

4:23 PM MDT on August 27, 2015 (GMT -0600)
Blanding | | Change Station
CLOSE
Current Station
Airport
Location: Blanding,
Elevation: 5863 ft
Nearby Weather Stations
Active Advisory: Areal Flood Advisory

Elev 5863 ft 37.58 °N, 109.48 °W | Updated 8 minutes ago

Partly Cloudy
Partly Cloudy
82 °F
Feels Like 82 °F
N
6
Wind Variable Wind from SSE

Today
High -- | Low -- °F
--% Chance of Precip.
Yesterday
High -- | Low -- °F
Precip. -- in
6:48 AM 7:56 PM
Waxing Gibbous, 95% visible
Pressure 30.30 in
Visibility 10.0 miles
Clouds Clear
Dew Point 51 °F
Humidity 34%
Rainfall 0.00 in
Snow Depth Not available.
UV 6 out of 12
Pollen 2.00 out of 12
Air Quality Not available.
Flu Activity Not available.
METAR KBDG 272215Z AUTO 15005KT 10SM CLR 28/11 A3030 RMK AO1 T02760105
Pressure 30.30 in
Visibility 10.0 miles
Clouds Clear
Dew Point 51 °F
Humidity 34%
Rainfall 0.00 in
Snow Depth Not available.
UV 6 out of 12
Pollen 2.00 out of 12
Air Quality Not available.
Flu Activity Not available.
METAR KBDG 272215Z AUTO 15005KT 10SM CLR 28/11 A3030 RMK AO1 T02760105

10-Day Weather Forecast

×

Almanac

Astronomy

Aug. 27, 2015 Rise Set
Actual Time
Civil Twilight
Nautical Twilight
Astronomical Twilight
Moon
Length of Visible Light
Length of Day
Tomorrow will be .
, % of the Moon is Illuminated

Today's Extremes

State Highs State Lows

Community

WunderPhotos

Upload Photos

1,850,249 photos uploaded!

WunderBlogs® & News

Nearby

Air Quality

  Air Quality AQ Index Pollutant
Not available.

Snow Depth

Station Depth Elevation

Earthquake Activity

City Distance Mag. Time & Date
Minimum magnitude displayed is 2.5.

Coastal Water Temperatures

Place Temperature

Stations

Nearby Weather Stations

Station Location Temp. Windchill Dew Point Humidity Wind Precip. Elev Updated Type
                   
Areal Flood Advisory
Statement as of 2:58 PM MDT on August 27, 2015

... The Urban and Small Stream Flood Advisory remains in effect until
500 PM MST for southeastern Apache County...

At 255 PM MST... Doppler radar indicated heavy rain has moved out of
the Springerville area. Up to two inches of rain has fallen earlier
this afternoon. Light rainfall with little additional accumulation
is expected for the rest of the afternoon.

Some locations that will experience flooding include...
Springerville... Eagar... Nutrioso... Nelson Reservoir and Becker Lake.

Precautionary/preparedness actions...

Excessive runoff from heavy rainfall will cause flooding of small
creeks and streams... as well as farm and country roads. Do not
attempt to travel across flooded roads. Find alternate routes.


Lat... Lon 3395 10905 3396 10939 3418 10939 3423 10905

41